Time;durP1;ratioP1;P1;durP2;ratioP2;P2;SDS_P1;SDS_P2;PMS_P1;PMS_P2;Temp;Humidity;BMP_temperature;BMP_pressure;BME280_temperature;BME280_humidity;BME280_pressure;Samples;Min_cycle;Max_cycle;Signal;HPM_P1;HPM_P2
2024/02/05 00:00:47;;;;;;;17.10;5.40;;;11.50;99.90;;;;;;4960445;28;20027;-83
2024/02/05 00:03:12;;;;;;;16.27;4.38;;;11.50;99.90;;;;;;4960381;28;20037;-83
2024/02/05 00:05:38;;;;;;;12.65;4.85;;;11.50;99.90;;;;;;4944527;28;20035;-83
2024/02/05 00:08:05;;;;;;;15.68;4.53;;;11.50;99.90;;;;;;4977235;28;20469;-83
2024/02/05 00:10:31;;;;;;;23.45;5.38;;;11.50;99.90;;;;;;4961271;28;20034;-82
2024/02/05 00:12:56;;;;;;;16.45;4.60;;;11.50;99.90;;;;;;4977465;28;20089;-83
2024/02/05 00:15:25;;;;;;;21.92;5.95;;;11.50;99.90;;;;;;4979961;28;20102;-84
2024/02/05 00:17:51;;;;;;;21.15;4.80;;;11.50;99.90;;;;;;5001090;28;20033;-83
2024/02/05 00:20:16;;;;;;;16.77;4.95;;;11.50;99.90;;;;;;4985353;28;20010;-83
2024/02/05 00:22:42;;;;;;;17.77;4.90;;;11.50;99.90;;;;;;5003884;28;20137;-81
2024/02/05 00:25:10;;;;;;;16.50;4.28;;;11.50;99.90;;;;;;4988795;28;20046;-83
2024/02/05 00:27:35;;;;;;;24.23;5.90;;;11.50;99.90;;;;;;4965037;28;20080;-82
2024/02/05 00:30:01;;;;;;;17.27;4.47;;;11.50;99.90;;;;;;4997425;28;20030;-83
2024/02/05 00:32:27;;;;;;;16.15;5.15;;;11.40;99.90;;;;;;4979790;28;20034;-82
2024/02/05 00:34:57;;;;;;;22.48;4.95;;;11.40;99.90;;;;;;4979414;28;20022;-83
2024/02/05 00:37:24;;;;;;;20.48;5.18;;;11.40;99.90;;;;;;4963645;28;20061;-84
2024/02/05 00:39:50;;;;;;;25.02;5.72;;;11.40;99.90;;;;;;4963205;28;20501;-83
2024/02/05 00:42:15;;;;;;;21.00;5.68;;;11.40;99.90;;;;;;4997052;28;20038;-83
2024/02/05 00:44:41;;;;;;;24.52;5.72;;;11.40;99.90;;;;;;4963231;28;20358;-83
2024/02/05 00:47:07;;;;;;;19.85;5.00;;;11.40;99.90;;;;;;4963659;28;20026;-83
2024/02/05 00:49:32;;;;;;;19.92;5.03;;;11.40;99.90;;;;;;4962878;28;20030;-83
2024/02/05 00:52:01;;;;;;;20.60;5.28;;;11.40;99.90;;;;;;4978673;28;20493;-83
2024/02/05 00:54:27;;;;;;;18.83;5.05;;;11.40;99.90;;;;;;4962649;28;20061;-83
2024/02/05 00:56:52;;;;;;;16.55;5.00;;;11.40;99.90;;;;;;4996199;28;20034;-84
2024/02/05 00:59:18;;;;;;;19.23;5.72;;;11.40;99.90;;;;;;4996386;28;20022;-83
2024/02/05 01:01:45;;;;;;;24.70;5.55;;;11.40;99.90;;;;;;4962458;28;20081;-83
2024/02/05 01:04:11;;;;;;;20.45;5.90;;;11.30;99.90;;;;;;4961745;28;20026;-82
2024/02/05 01:06:36;;;;;;;18.70;5.70;;;11.30;99.90;;;;;;4962666;28;20030;-82
2024/02/05 01:09:09;;;;;;;17.52;5.57;;;11.30;99.90;;;;;;4979012;28;20058;-83
2024/02/05 01:11:34;;;;;;;23.02;6.60;;;11.30;99.90;;;;;;4963309;28;20119;-83
2024/02/05 01:14:00;;;;;;;23.13;5.55;;;11.30;99.90;;;;;;4962341;28;20130;-83
2024/02/05 01:16:26;;;;;;;20.50;5.13;;;11.30;99.90;;;;;;4962684;28;20362;-83
2024/02/05 01:18:52;;;;;;;20.35;6.00;;;11.30;99.90;;;;;;4978335;28;20038;-83
2024/02/05 01:21:18;;;;;;;20.75;5.50;;;11.30;99.90;;;;;;4978651;28;20027;-84
2024/02/05 01:23:46;;;;;;;18.10;4.93;;;11.30;99.90;;;;;;4962571;28;20037;-83
2024/02/05 01:26:12;;;;;;;26.45;5.80;;;11.30;99.90;;;;;;4978913;28;20161;-83
2024/02/05 01:28:38;;;;;;;25.20;6.13;;;11.30;99.90;;;;;;4978305;28;20034;-83
2024/02/05 01:31:06;;;;;;;25.48;5.95;;;11.30;99.90;;;;;;4994527;28;20033;-83
2024/02/05 01:33:32;;;;;;;22.35;6.20;;;11.30;99.90;;;;;;4977634;28;20030;-83
2024/02/05 01:35:58;;;;;;;22.80;5.47;;;11.20;99.90;;;;;;4978359;28;20466;-83
2024/02/05 01:38:23;;;;;;;21.42;5.72;;;11.20;99.90;;;;;;4962672;28;20087;-83
2024/02/05 01:40:49;;;;;;;27.33;5.90;;;11.20;99.90;;;;;;4979170;28;20030;-83
2024/02/05 01:43:17;;;;;;;22.98;5.55;;;11.20;99.90;;;;;;4962611;28;20092;-83
2024/02/05 01:45:43;;;;;;;17.90;5.30;;;11.20;99.90;;;;;;4979185;28;20031;-82
2024/02/05 01:48:09;;;;;;;23.80;5.38;;;11.20;99.90;;;;;;5000230;28;20030;-82
2024/02/05 01:50:37;;;;;;;23.05;7.18;;;11.10;99.90;;;;;;5003120;28;20021;-82
2024/02/05 01:53:04;;;;;;;21.95;5.90;;;11.10;99.90;;;;;;4987113;28;20011;-82
2024/02/05 01:55:31;;;;;;;23.15;5.93;;;11.10;99.90;;;;;;4999177;28;20067;-82
2024/02/05 01:57:57;;;;;;;17.67;5.60;;;11.10;99.90;;;;;;4993950;28;20117;-83
2024/02/05 02:00:24;;;;;;;21.20;6.07;;;11.10;99.90;;;;;;4975088;28;20034;-82
2024/02/05 02:02:50;;;;;;;20.65;6.50;;;11.10;99.90;;;;;;4975097;28;20134;-82
2024/02/05 02:05:17;;;;;;;25.70;6.07;;;11.00;99.90;;;;;;4975868;28;20055;-83
2024/02/05 02:07:42;;;;;;;22.15;5.82;;;11.00;99.90;;;;;;4974630;28;20034;-83
2024/02/05 02:10:10;;;;;;;21.40;6.22;;;11.00;99.90;;;;;;4974584;28;20190;-83
2024/02/05 02:12:37;;;;;;;26.60;6.53;;;11.00;99.90;;;;;;4958522;28;20035;-80
2024/02/05 02:15:04;;;;;;;22.17;6.10;;;10.90;99.90;;;;;;4957823;28;20078;-81
2024/02/05 02:17:34;;;;;;;21.38;6.20;;;10.90;99.90;;;;;;4974211;28;20034;-83
2024/02/05 02:20:00;;;;;;;16.50;4.93;;;10.90;99.90;;;;;;4975353;28;20041;-82
2024/02/05 02:22:35;;;;;;;19.38;5.32;;;10.80;99.90;;;;;;4958028;28;20039;-82
2024/02/05 02:25:01;;;;;;;24.23;5.88;;;10.80;99.90;;;;;;4974094;28;20121;-82
2024/02/05 02:27:27;;;;;;;24.75;5.55;;;10.80;99.90;;;;;;4974346;28;20041;-82
2024/02/05 02:29:53;;;;;;;22.15;5.45;;;10.80;99.90;;;;;;4940168;28;20592;-83
2024/02/05 02:32:28;;;;;;;21.98;5.93;;;10.70;99.90;;;;;;4973959;28;20031;-83
2024/02/05 02:34:58;;;;;;;19.65;5.57;;;10.80;99.90;;;;;;4974833;28;20023;-82
2024/02/05 02:37:29;;;;;;;19.42;5.97;;;10.70;99.90;;;;;;4973863;28;20098;-83
2024/02/05 02:39:57;;;;;;;;;;;10.70;99.90;;;;;;4974059;28;20061;-83
2024/02/05 02:42:25;;;;;;;24.65;5.88;;;10.70;99.90;;;;;;4973806;28;20009;-83
2024/02/05 02:44:54;;;;;;;22.77;7.07;;;10.70;99.90;;;;;;4973911;28;20033;-83
2024/02/05 02:47:19;;;;;;;17.17;5.32;;;10.70;99.90;;;;;;4973522;28;20090;-82
2024/02/05 02:49:45;;;;;;;23.65;6.28;;;10.70;99.90;;;;;;4973903;28;20027;-83
2024/02/05 02:52:11;;;;;;;21.13;5.88;;;10.70;99.90;;;;;;4973629;28;20031;-82
2024/02/05 02:54:37;;;;;;;24.42;5.53;;;10.70;99.90;;;;;;4957840;28;20050;-83
2024/02/05 02:57:03;;;;;;;19.73;5.47;;;10.70;99.90;;;;;;4941701;28;20538;-83
2024/02/05 02:59:28;;;;;;;23.33;6.28;;;10.70;99.90;;;;;;4973835;28;20031;-83
2024/02/05 03:01:54;;;;;;;24.25;7.03;;;10.70;99.90;;;;;;4975461;28;20372;-82
2024/02/05 03:04:20;;;;;;;29.33;6.78;;;10.70;99.90;;;;;;4973665;28;20035;-82
2024/02/05 03:06:45;;;;;;;27.42;7.28;;;10.70;99.90;;;;;;4957698;28;20037;-83
2024/02/05 03:09:11;;;;;;;28.23;6.72;;;10.60;99.90;;;;;;4973712;28;20513;-82
2024/02/05 03:11:37;;;;;;;26.15;6.57;;;10.60;99.90;;;;;;4942154;28;20035;-82
2024/02/05 03:14:02;;;;;;;25.73;6.20;;;10.60;99.90;;;;;;4958441;28;20115;-83
2024/02/05 03:16:28;;;;;;;19.83;6.22;;;10.60;99.90;;;;;;4974156;28;20058;-83
2024/02/05 03:18:53;;;;;;;23.50;6.93;;;10.60;99.90;;;;;;4959747;28;20027;-83
2024/02/05 03:21:22;;;;;;;25.92;6.68;;;10.60;99.90;;;;;;4973755;28;20051;-83
2024/02/05 03:23:47;;;;;;;23.92;7.15;;;10.70;99.90;;;;;;4998033;28;20050;-82
2024/02/05 03:26:13;;;;;;;25.63;6.63;;;10.70;99.90;;;;;;4981571;28;20026;-83
2024/02/05 03:28:42;;;;;;;25.33;6.47;;;10.70;99.90;;;;;;4998153;28;20031;-83
2024/02/05 03:31:08;;;;;;;30.10;7.63;;;10.70;99.90;;;;;;4982113;28;20053;-83
2024/02/05 03:33:34;;;;;;;24.23;6.60;;;10.70;99.90;;;;;;4958111;28;20475;-83
2024/02/05 03:35:59;;;;;;;28.83;6.82;;;10.70;99.90;;;;;;4973300;28;20039;-83
2024/02/05 03:38:25;;;;;;;24.73;6.78;;;10.70;99.90;;;;;;4957466;28;20449;-82
2024/02/05 03:40:51;;;;;;;22.55;6.82;;;10.70;99.90;;;;;;4973261;28;20031;-82
2024/02/05 03:43:16;;;;;;;22.85;7.05;;;10.70;99.90;;;;;;4973068;28;20089;-82
2024/02/05 03:45:42;;;;;;;31.55;7.13;;;10.70;99.90;;;;;;4973029;28;20035;-83
2024/02/05 03:48:08;;;;;;;29.20;8.02;;;10.70;99.90;;;;;;4956849;28;20437;-83
2024/02/05 03:50:34;;;;;;;21.40;6.70;;;10.70;99.90;;;;;;4973175;28;20494;-82
2024/02/05 03:53:00;;;;;;;25.48;6.45;;;10.70;99.90;;;;;;4941344;28;20133;-83
2024/02/05 03:55:26;;;;;;;21.80;6.45;;;10.70;99.90;;;;;;4940976;28;20110;-82
2024/02/05 03:58:04;;;;;;;22.02;6.80;;;10.70;99.90;;;;;;4977334;28;20038;-82
2024/02/05 04:00:30;;;;;;;20.55;6.68;;;10.70;99.90;;;;;;4976612;28;20030;-83
2024/02/05 04:02:59;;;;;;;21.92;6.15;;;10.70;99.90;;;;;;4960526;28;20063;-83
2024/02/05 04:05:28;;;;;;;22.50;6.75;;;10.70;99.90;;;;;;4977137;28;20114;-83
2024/02/05 04:07:53;;;;;;;27.33;7.18;;;10.70;99.90;;;;;;4977994;28;20026;-84
2024/02/05 04:10:19;;;;;;;24.92;7.35;;;10.70;99.90;;;;;;4977672;28;20035;-83
2024/02/05 04:12:45;;;;;;;23.27;7.57;;;10.70;99.90;;;;;;4976701;28;20130;-83
2024/02/05 04:15:11;;;;;;;22.73;7.03;;;10.70;99.90;;;;;;4960700;28;20074;-82
2024/02/05 04:17:36;;;;;;;25.10;7.25;;;10.70;99.90;;;;;;4976536;28;20038;-82
2024/02/05 04:20:06;;;;;;;24.20;6.60;;;10.70;99.90;;;;;;4976794;28;20038;-82
2024/02/05 04:22:33;;;;;;;30.02;7.00;;;10.70;99.90;;;;;;4977091;28;20043;-82
2024/02/05 04:24:58;;;;;;;21.40;6.85;;;10.70;99.90;;;;;;4960539;28;20058;-83
2024/02/05 04:27:24;;;;;;;26.23;6.95;;;10.70;99.90;;;;;;4960773;28;20066;-83
2024/02/05 04:29:49;;;;;;;20.77;6.30;;;10.70;99.90;;;;;;4960819;28;20063;-82
2024/02/05 04:32:15;;;;;;;25.55;6.38;;;10.70;99.90;;;;;;4976577;28;20039;-82
2024/02/05 04:34:41;;;;;;;28.83;7.00;;;10.70;99.90;;;;;;4976689;28;20506;-82
2024/02/05 04:37:06;;;;;;;26.55;6.75;;;10.70;99.90;;;;;;4976607;28;20130;-82
2024/02/05 04:39:32;;;;;;;26.27;7.53;;;10.70;99.90;;;;;;4976367;28;20062;-83
2024/02/05 04:41:58;;;;;;;23.85;7.25;;;10.70;99.90;;;;;;4944700;28;20066;-82
2024/02/05 04:44:23;;;;;;;24.88;6.38;;;10.70;99.90;;;;;;4976668;28;20395;-82
2024/02/05 04:46:49;;;;;;;23.77;6.45;;;10.70;99.90;;;;;;4977360;28;20050;-82
2024/02/05 04:49:15;;;;;;;25.45;7.10;;;10.60;99.90;;;;;;4977155;28;20364;-82
2024/02/05 04:51:46;;;;;;;23.05;6.60;;;10.60;99.90;;;;;;4978631;28;20043;-83
2024/02/05 04:54:14;;;;;;;24.85;6.30;;;10.60;99.90;;;;;;4992996;28;20124;-82
2024/02/05 04:56:40;;;;;;;27.05;6.97;;;10.60;99.90;;;;;;4981845;28;20045;-82
2024/02/05 04:59:06;;;;;;;24.52;6.57;;;10.60;99.90;;;;;;4987876;28;20042;-82
2024/02/05 05:01:31;;;;;;;21.33;6.07;;;10.70;99.90;;;;;;4979583;28;20041;-84
2024/02/05 05:03:57;;;;;;;24.33;6.40;;;10.70;99.90;;;;;;4964356;28;20378;-82
2024/02/05 05:06:23;;;;;;;22.90;6.13;;;10.60;99.90;;;;;;4963361;28;20030;-82
2024/02/05 05:08:49;;;;;;;19.73;5.35;;;10.70;99.90;;;;;;4961930;28;20038;-82
2024/02/05 05:11:22;;;;;;;25.90;6.78;;;10.70;99.90;;;;;;4978619;28;20039;-82
2024/02/05 05:13:49;;;;;;;25.90;6.95;;;10.70;99.90;;;;;;4978864;28;20027;-82
2024/02/05 05:16:16;;;;;;;25.42;6.20;;;10.70;99.90;;;;;;4962346;28;20034;-83
2024/02/05 05:18:41;;;;;;;24.80;6.40;;;10.70;99.90;;;;;;4962639;28;20117;-82
2024/02/05 05:21:07;;;;;;;23.88;6.32;;;10.70;99.90;;;;;;4962140;28;20434;-82
2024/02/05 05:23:32;;;;;;;23.67;7.20;;;10.70;99.90;;;;;;4962322;28;20385;-83
2024/02/05 05:25:58;;;;;;;27.42;6.47;;;10.60;99.90;;;;;;4962199;28;20038;-83
2024/02/05 05:28:24;;;;;;;22.48;5.95;;;10.60;99.90;;;;;;4962292;28;20030;-82
2024/02/05 05:30:49;;;;;;;22.50;6.63;;;10.60;99.90;;;;;;4978424;28;20093;-83
2024/02/05 05:33:15;;;;;;;16.85;5.15;;;10.60;99.90;;;;;;4962069;28;20035;-82
2024/02/05 05:35:41;;;;;;;22.88;6.32;;;10.60;99.90;;;;;;4978366;28;20030;-83
2024/02/05 05:38:06;;;;;;;26.50;6.13;;;10.70;99.90;;;;;;4962221;28;20030;-83
2024/02/05 05:40:33;;;;;;;28.33;6.80;;;10.70;99.90;;;;;;4977968;28;20092;-83
2024/02/05 05:42:59;;;;;;;23.52;5.85;;;10.60;99.90;;;;;;4977990;28;20038;-81
2024/02/05 05:45:27;;;;;;;22.02;6.55;;;10.60;99.90;;;;;;4976849;28;20026;-80
2024/02/05 05:47:56;;;;;;;27.55;6.53;;;10.60;99.90;;;;;;4977948;28;20462;-81
2024/02/05 05:50:21;;;;;;;23.00;5.90;;;10.60;99.90;;;;;;4977718;28;20031;-82
2024/02/05 05:52:47;;;;;;;20.95;6.78;;;10.60;99.90;;;;;;4977570;28;20041;-83
2024/02/05 05:55:13;;;;;;;19.40;6.00;;;10.60;99.90;;;;;;4995031;28;20050;-82
2024/02/05 05:57:39;;;;;;;28.70;7.18;;;10.50;99.90;;;;;;4977970;28;20054;-83
2024/02/05 06:00:06;;;;;;;18.25;6.40;;;10.50;99.90;;;;;;4977576;28;20120;-84
2024/02/05 06:02:31;;;;;;;22.85;6.30;;;10.50;99.90;;;;;;4961684;28;20045;-81
2024/02/05 06:04:58;;;;;;;17.17;7.07;;;10.60;99.90;;;;;;4977801;28;20370;-82
2024/02/05 06:07:24;;;;;;;20.00;6.10;;;10.60;99.90;;;;;;4977902;28;20034;-82
2024/02/05 06:09:49;;;;;;;23.52;6.80;;;10.60;99.90;;;;;;4978029;28;20038;-82
2024/02/05 06:12:18;;;;;;;22.58;6.50;;;10.60;99.90;;;;;;4978272;28;20124;-83
2024/02/05 06:14:45;;;;;;;15.32;5.55;;;10.60;99.90;;;;;;4962555;28;20390;-82
2024/02/05 06:17:11;;;;;;;23.85;6.30;;;10.50;99.90;;;;;;4994362;28;20022;-83
2024/02/05 06:19:37;;;;;;;20.55;6.15;;;10.60;99.90;;;;;;4962259;28;20037;-83
2024/02/05 06:22:02;;;;;;;20.73;6.38;;;10.60;99.90;;;;;;4962776;28;20055;-82
2024/02/05 06:24:29;;;;;;;26.92;6.35;;;10.50;99.90;;;;;;4979008;28;20014;-82
2024/02/05 06:26:55;;;;;;;18.02;6.57;;;10.50;99.90;;;;;;5002117;28;20082;-84
2024/02/05 06:29:21;;;;;;;18.55;6.15;;;10.50;99.90;;;;;;5001910;28;20010;-83
2024/02/05 06:31:46;;;;;;;22.58;6.70;;;10.50;99.90;;;;;;4983265;28;20061;-83
2024/02/05 06:34:12;;;;;;;22.45;7.00;;;10.50;99.90;;;;;;4968150;28;20080;-82
2024/02/05 06:36:37;;;;;;;18.15;6.13;;;10.50;99.90;;;;;;4995336;28;20105;-82
2024/02/05 06:39:03;;;;;;;23.83;5.85;;;10.50;99.90;;;;;;4961235;28;20488;-83
2024/02/05 06:41:30;;;;;;;24.10;5.97;;;10.50;99.90;;;;;;4960819;28;20033;-83
2024/02/05 06:43:56;;;;;;;20.92;6.18;;;10.50;99.90;;;;;;4961105;28;20390;-83
2024/02/05 06:46:22;;;;;;;19.60;6.32;;;10.50;99.90;;;;;;4961120;28;20064;-83
2024/02/05 06:48:48;;;;;;;21.38;6.85;;;10.50;99.90;;;;;;4977236;28;20049;-83
2024/02/05 06:51:13;;;;;;;21.17;5.88;;;10.50;99.90;;;;;;4977124;28;20449;-83
2024/02/05 06:53:39;;;;;;;20.33;6.45;;;10.50;99.90;;;;;;4960747;28;20474;-83
2024/02/05 06:56:05;;;;;;;19.70;6.60;;;10.50;99.90;;;;;;4960664;28;20103;-84
2024/02/05 06:58:31;;;;;;;18.98;5.63;;;10.50;99.90;;;;;;4960838;28;20030;-84
2024/02/05 07:00:56;;;;;;;20.40;6.03;;;10.50;99.90;;;;;;4960913;28;20047;-84
2024/02/05 07:03:22;;;;;;;20.52;6.10;;;10.50;99.90;;;;;;4960633;28;20134;-84
2024/02/05 07:05:48;;;;;;;21.40;6.07;;;10.50;99.90;;;;;;4960547;28;20022;-83
2024/02/05 07:08:13;;;;;;;18.83;6.20;;;10.50;99.90;;;;;;4976933;28;20085;-83
2024/02/05 07:10:40;;;;;;;25.17;6.10;;;10.50;99.90;;;;;;4993985;28;20517;-83
2024/02/05 07:13:05;;;;;;;16.92;5.00;;;10.50;99.90;;;;;;4977113;28;20034;-82
2024/02/05 07:15:34;;;;;;;17.98;5.78;;;10.50;99.90;;;;;;4993656;28;20390;-83
2024/02/05 07:18:00;;;;;;;17.42;5.88;;;10.50;99.90;;;;;;4960893;28;20053;-83
2024/02/05 07:20:25;;;;;;;22.85;6.55;;;10.50;99.90;;;;;;4976458;28;20359;-83
2024/02/05 07:22:53;;;;;;;23.92;5.78;;;10.50;99.90;;;;;;4960638;28;20044;-83
2024/02/05 07:25:19;;;;;;;16.63;5.90;;;10.50;99.90;;;;;;4994194;28;20022;-83
2024/02/05 07:27:45;;;;;;;19.85;5.65;;;10.40;99.90;;;;;;4976603;28;20133;-83
2024/02/05 07:30:11;;;;;;;25.80;6.60;;;10.40;99.90;;;;;;4959798;28;20106;-84
2024/02/05 07:32:37;;;;;;;19.63;5.72;;;10.40;99.90;;;;;;4959947;28;20425;-82
2024/02/05 07:35:03;;;;;;;19.17;6.15;;;10.40;99.90;;;;;;4976705;28;20038;-82
2024/02/05 07:37:29;;;;;;;26.00;6.60;;;10.40;99.90;;;;;;4976633;28;20490;-84
2024/02/05 07:39:55;;;;;;;21.25;5.65;;;10.40;99.90;;;;;;4960619;28;20030;-83
2024/02/05 07:42:20;;;;;;;26.98;6.90;;;10.40;99.90;;;;;;4976528;28;20118;-84
2024/02/05 07:44:46;;;;;;;20.30;5.90;;;10.30;99.90;;;;;;4961120;28;20073;-83
2024/02/05 07:47:12;;;;;;;26.48;7.38;;;10.40;99.90;;;;;;4961526;28;20077;-84
2024/02/05 07:49:40;;;;;;;23.58;5.88;;;10.40;99.90;;;;;;4978023;28;20080;-83
2024/02/05 07:52:06;;;;;;;18.83;5.82;;;10.40;99.90;;;;;;4996706;28;20079;-83
2024/02/05 07:54:31;;;;;;;21.10;6.18;;;10.40;99.90;;;;;;4973196;28;20208;-84
2024/02/05 07:57:02;;;;;;;20.63;5.95;;;10.40;99.90;;;;;;4985412;28;20043;-82
2024/02/05 07:59:31;;;;;;;17.65;5.72;;;10.40;99.90;;;;;;4986195;28;20042;-83
2024/02/05 08:01:57;;;;;;;24.27;6.05;;;10.40;99.90;;;;;;4998619;28;20057;-83
2024/02/05 08:04:25;;;;;;;18.30;5.75;;;10.40;99.90;;;;;;4982862;28;20034;-83
2024/02/05 08:06:51;;;;;;;24.52;5.70;;;10.40;99.90;;;;;;4961302;28;20034;-83
2024/02/05 08:09:16;;;;;;;23.67;6.47;;;10.50;99.90;;;;;;4960268;28;20037;-83
2024/02/05 08:11:43;;;;;;;26.27;6.88;;;10.40;99.90;;;;;;4976366;28;20026;-83
2024/02/05 08:14:10;;;;;;;19.35;5.85;;;10.50;99.90;;;;;;4960113;28;20478;-83
2024/02/05 08:16:37;;;;;;;19.05;5.95;;;10.50;99.90;;;;;;4975849;28;20026;-84
2024/02/05 08:19:04;;;;;;;22.63;6.70;;;10.50;99.90;;;;;;4976145;28;20505;-83
2024/02/05 08:21:30;;;;;;;24.48;7.63;;;10.40;99.90;;;;;;4993592;28;20027;-83
2024/02/05 08:23:56;;;;;;;22.08;6.80;;;10.40;99.90;;;;;;4959870;28;20501;-83
2024/02/05 08:26:21;;;;;;;22.88;7.03;;;10.40;99.90;;;;;;4959824;28;20430;-83
2024/02/05 08:28:47;;;;;;;23.00;6.43;;;10.40;99.90;;;;;;4960010;28;20050;-83
2024/02/05 08:31:13;;;;;;;22.20;6.72;;;10.40;99.90;;;;;;4959854;28;20085;-83
2024/02/05 08:33:39;;;;;;;21.35;6.45;;;10.40;99.90;;;;;;4959847;28;20030;-84
2024/02/05 08:36:05;;;;;;;17.73;6.03;;;10.40;99.90;;;;;;4960238;28;20089;-84
2024/02/05 08:38:30;;;;;;;17.85;7.25;;;10.40;99.90;;;;;;4959635;28;20497;-83
2024/02/05 08:40:56;;;;;;;22.27;7.45;;;10.40;99.90;;;;;;4959747;28;20030;-83
2024/02/05 08:43:22;;;;;;;23.23;8.00;;;10.40;99.90;;;;;;4962205;28;20359;-83
2024/02/05 08:45:48;;;;;;;29.75;8.65;;;10.40;99.90;;;;;;4963160;28;20058;-83
2024/02/05 08:48:14;;;;;;;20.67;6.90;;;10.40;99.90;;;;;;4963339;28;20022;-83
2024/02/05 08:50:39;;;;;;;29.17;7.85;;;10.40;99.90;;;;;;4995527;28;20026;-83
2024/02/05 08:53:06;;;;;;;22.70;7.07;;;10.40;99.90;;;;;;4997173;28;20422;-83
2024/02/05 08:55:33;;;;;;;22.83;7.97;;;10.50;99.90;;;;;;4978973;28;20043;-83
2024/02/05 08:57:59;;;;;;;26.80;8.07;;;10.50;99.90;;;;;;4963053;28;20030;-83
2024/02/05 09:00:25;;;;;;;22.40;7.93;;;10.50;99.90;;;;;;4963271;28;20031;-84
2024/02/05 09:02:53;;;;;;;24.15;8.20;;;10.40;99.90;;;;;;4978993;28;20547;-83
2024/02/05 09:05:19;;;;;;;24.27;8.23;;;10.50;99.90;;;;;;4979169;28;20121;-83
2024/02/05 09:07:45;;;;;;;24.15;9.15;;;10.50;99.90;;;;;;4995063;28;20049;-83
2024/02/05 09:10:11;;;;;;;32.30;9.75;;;10.50;99.90;;;;;;4979170;28;20023;-83
2024/02/05 09:12:37;;;;;;;20.88;8.15;;;10.50;99.90;;;;;;4979125;28;20030;-84
2024/02/05 09:15:04;;;;;;;26.20;9.23;;;10.50;99.90;;;;;;4979264;28;20037;-84
2024/02/05 09:17:30;;;;;;;31.13;9.32;;;10.50;99.90;;;;;;4979009;28;20482;-83
2024/02/05 09:19:56;;;;;;;29.10;9.85;;;10.40;99.90;;;;;;4979139;28;20030;-84
2024/02/05 09:22:22;;;;;;;27.98;10.05;;;10.50;99.90;;;;;;4980372;28;20041;-83
2024/02/05 09:24:48;;;;;;;25.20;10.52;;;10.50;99.90;;;;;;5002234;28;20022;-83
2024/02/05 09:27:14;;;;;;;21.55;8.57;;;10.40;99.90;;;;;;5019852;28;20002;-83
2024/02/05 09:29:40;;;;;;;21.77;8.40;;;10.40;99.90;;;;;;4986890;28;20033;-83
2024/02/05 09:32:05;;;;;;;26.23;8.75;;;10.40;99.90;;;;;;5002385;28;20014;-83
2024/02/05 09:34:32;;;;;;;22.60;7.90;;;10.50;99.90;;;;;;4995673;28;20057;-83
2024/02/05 09:37:01;;;;;;;21.75;8.40;;;10.50;99.90;;;;;;4978734;28;20447;-83
2024/02/05 09:39:26;;;;;;;23.33;7.55;;;10.50;99.90;;;;;;4962192;28;20026;-83
2024/02/05 09:41:59;;;;;;;17.75;7.60;;;10.50;99.90;;;;;;4962169;28;20040;-84
2024/02/05 09:44:29;;;;;;;23.30;8.05;;;10.50;99.90;;;;;;4978529;28;20030;-84
2024/02/05 09:46:58;;;;;;;19.50;7.95;;;10.60;99.90;;;;;;4962288;28;20113;-83
2024/02/05 09:49:24;;;;;;;22.08;7.97;;;10.60;99.90;;;;;;4977952;28;20474;-84
2024/02/05 09:51:51;;;;;;;20.38;7.15;;;10.50;99.90;;;;;;4962168;28;20030;-83
2024/02/05 09:54:16;;;;;;;14.55;6.78;;;10.50;99.90;;;;;;4977648;28;20093;-84
2024/02/05 09:56:42;;;;;;;24.45;7.40;;;10.60;99.90;;;;;;4974115;28;20062;-84
2024/02/05 09:59:12;;;;;;;26.00;7.40;;;10.60;99.90;;;;;;4974916;28;20038;-84
2024/02/05 10:01:38;;;;;;;20.42;6.78;;;10.60;99.90;;;;;;4958939;28;20477;-83
2024/02/05 10:04:08;;;;;;;18.55;7.57;;;10.60;99.90;;;;;;4958356;28;20112;-84
2024/02/05 10:06:37;;;;;;;24.30;7.03;;;10.60;99.90;;;;;;4974369;28;20063;-84
2024/02/05 10:09:04;;;;;;;17.70;6.40;;;10.60;99.90;;;;;;4958813;28;20463;-84
2024/02/05 10:11:32;;;;;;;16.80;6.30;;;10.70;99.90;;;;;;4974513;28;20034;-82
2024/02/05 10:14:00;;;;;;;21.40;6.10;;;10.60;99.90;;;;;;4974262;28;20130;-83
2024/02/05 10:16:27;;;;;;;24.25;6.78;;;10.70;99.90;;;;;;4942712;28;20023;-83
2024/02/05 10:18:52;;;;;;;23.55;6.07;;;10.70;99.90;;;;;;4975393;28;20030;-83
2024/02/05 10:21:18;;;;;;;21.40;6.10;;;10.70;99.90;;;;;;4958611;28;20026;-83
2024/02/05 10:23:54;;;;;;;22.10;5.88;;;10.70;99.90;;;;;;4975355;28;20113;-81
2024/02/05 10:26:22;;;;;;;16.80;5.00;;;10.70;99.90;;;;;;4958868;28;20162;-83
2024/02/05 10:28:48;;;;;;;17.67;5.57;;;10.80;99.90;;;;;;4975362;28;20033;-83
2024/02/05 10:31:16;;;;;;;20.30;6.50;;;10.80;99.90;;;;;;4990282;28;20114;-82
2024/02/05 10:33:42;;;;;;;22.15;6.28;;;10.80;99.90;;;;;;4975355;28;20038;-83
2024/02/05 10:36:10;;;;;;;23.05;6.32;;;10.80;99.90;;;;;;4975539;28;20077;-84
2024/02/05 10:38:37;;;;;;;23.13;6.30;;;10.80;99.90;;;;;;4974226;28;20093;-83
2024/02/05 10:41:06;;;;;;;21.67;6.10;;;10.80;99.90;;;;;;4973966;28;20039;-83
2024/02/05 10:43:32;;;;;;;21.83;5.70;;;10.80;99.90;;;;;;4942386;28;20031;-84
2024/02/05 10:45:58;;;;;;;21.60;6.00;;;10.80;99.90;;;;;;4958439;28;20455;-85
2024/02/05 10:48:24;;;;;;;22.95;6.30;;;10.80;99.90;;;;;;4958616;28;20030;-84
2024/02/05 10:50:50;;;;;;;21.63;5.25;;;10.80;99.90;;;;;;4958839;28;20035;-83
2024/02/05 10:53:17;;;;;;;18.50;5.47;;;10.90;99.90;;;;;;4978483;28;20031;-83
2024/02/05 10:55:49;;;;;;;21.85;6.18;;;10.90;99.90;;;;;;4961907;28;20097;-82
2024/02/05 10:58:16;;;;;;;21.25;6.15;;;10.90;99.90;;;;;;4981767;28;20015;-83
2024/02/05 11:00:43;;;;;;;20.52;5.93;;;10.90;99.90;;;;;;4971793;28;20099;-83
2024/02/05 11:03:16;;;;;;;23.77;5.97;;;10.90;99.90;;;;;;4987723;28;20031;-83
2024/02/05 11:05:42;;;;;;;18.15;5.40;;;11.00;99.90;;;;;;4975896;28;20462;-84
2024/02/05 11:08:12;;;;;;;18.33;5.35;;;11.00;99.90;;;;;;4973782;28;20113;-83
2024/02/05 11:10:44;;;;;;;22.80;6.32;;;11.00;99.90;;;;;;4973653;28;20022;-82
2024/02/05 11:13:31;;;;;;;12.57;4.78;;;11.00;99.90;;;;;;4974808;28;20026;-84
2024/02/05 11:15:59;;;;;;;19.17;5.93;;;11.00;99.90;;;;;;4974329;28;20030;-82
2024/02/05 11:18:34;;;;;;;13.05;5.82;;;11.00;99.90;;;;;;4972899;28;20034;-83
2024/02/05 11:21:03;;;;;;;18.38;5.93;;;11.00;99.90;;;;;;4973698;28;20406;-84
2024/02/05 11:23:31;;;;;;;18.98;5.55;;;11.10;99.90;;;;;;4974666;28;20038;-83
2024/02/05 11:25:58;;;;;;;21.00;5.82;;;11.10;99.90;;;;;;4973521;28;20030;-83
2024/02/05 11:28:24;;;;;;;18.48;6.13;;;11.10;99.90;;;;;;4957459;28;20047;-84
2024/02/05 11:30:49;;;;;;;22.02;6.57;;;11.20;99.90;;;;;;4956990;28;20118;-84
2024/02/05 11:33:26;;;;;;;18.77;6.50;;;11.20;99.90;;;;;;4973554;28;20038;-84
2024/02/05 11:35:55;;;;;;;20.77;7.70;;;11.20;99.90;;;;;;4973068;28;20090;-84
2024/02/05 11:38:21;;;;;;;23.40;8.88;;;11.30;99.90;;;;;;4973030;28;20061;-84
2024/02/05 11:40:52;;;;;;;24.58;8.27;;;11.30;99.90;;;;;;4957140;28;20030;-83
2024/02/05 11:43:23;;;;;;;19.27;7.72;;;11.30;99.90;;;;;;4973250;28;20121;-84
2024/02/05 11:45:49;;;;;;;;;;;11.30;99.90;;;;;;4973651;28;20027;-84
2024/02/05 11:48:15;;;;;;;21.90;8.52;;;11.30;99.90;;;;;;4972647;28;19906;-84
2024/02/05 11:50:41;;;;;;;24.65;8.23;;;11.30;99.90;;;;;;4957188;28;20105;-84
2024/02/05 11:53:07;;;;;;;22.52;7.28;;;11.30;99.90;;;;;;4972955;28;20042;-84
2024/02/05 11:55:34;;;;;;;25.55;8.23;;;11.30;99.90;;;;;;4972758;28;20047;-84
2024/02/05 11:58:00;;;;;;;22.67;8.20;;;11.40;99.90;;;;;;4973095;28;20031;-83
2024/02/05 12:00:26;;;;;;;21.88;7.80;;;11.40;99.90;;;;;;4972568;28;20038;-83
2024/02/05 12:02:52;;;;;;;19.40;7.53;;;11.40;99.90;;;;;;4956753;28;20031;-83
2024/02/05 12:05:19;;;;;;;21.35;8.35;;;11.50;99.90;;;;;;4956953;28;20048;-84
2024/02/05 12:07:45;;;;;;;18.98;7.47;;;11.50;99.90;;;;;;4956878;28;20034;-82
2024/02/05 12:10:12;;;;;;;21.90;8.50;;;11.60;99.90;;;;;;4974329;28;20022;-82
2024/02/05 12:12:39;;;;;;;18.73;7.93;;;11.60;99.90;;;;;;4972994;28;20390;-82
2024/02/05 12:15:05;;;;;;;20.02;8.52;;;11.60;99.90;;;;;;4972975;28;20037;-83
2024/02/05 12:17:33;;;;;;;18.08;8.10;;;11.70;99.90;;;;;;4975907;28;20031;-83
2024/02/05 12:20:00;;;;;;;17.83;7.78;;;11.60;99.90;;;;;;4961358;28;20031;-83
2024/02/05 12:22:27;;;;;;;24.30;8.65;;;11.70;99.90;;;;;;4976729;28;20102;-83
2024/02/05 12:24:53;;;;;;;25.65;8.60;;;11.70;99.90;;;;;;4945804;28;20031;-83
2024/02/05 12:27:20;;;;;;;21.95;8.23;;;11.80;99.90;;;;;;4962949;28;20129;-84
2024/02/05 12:29:45;;;;;;;21.00;8.50;;;11.80;99.90;;;;;;4991086;28;20015;-83
2024/02/05 12:32:11;;;;;;;18.75;7.95;;;11.70;99.90;;;;;;5001421;28;20011;-84
2024/02/05 12:34:37;;;;;;;24.30;8.95;;;11.80;99.90;;;;;;4984409;28;20459;-84